Punta de Vacas, Argentina
Current Conditions -  °F | °C
As of 8:00 PM on Friday 24 Oct 2014 (Local Time) from SAME Reporting Station
Clear Clear  
Wind Chill: 86°   Ceiling: Unl
Heat Index: 86°   Visibility: 6mi
Dew Point: 59°   Wind: 2mph
Humidity: 40%   Direction: 140°SE
Pressure: 29.88"   Gusts: NA
Location:  32.85°S, 69.76°W
Report Text: SAME 242300Z 14002KT CAVOK 30/15 Q1012
Loading
Personal Weather Stations






























Interactive Weather Map
Tropical Storm Tracking
New forecast layout! Learn more

10-Day Weather Forecast

Advertisements
Track Severe Weather on mobile